Portada
METAR-TAF:

METAR-TAF

Aeropuertos :

West Memphis, Arkansas, Estados Unidos

latitud: 35-08N, longitud: 090-14W, altitud: 65 m

Observación

El informe se hizo hace 39 minutos, a las 19:53 UTC
Viento 10 kt del norte-noroeste con ráfagas de 15 kt, variando entre noroeste y norte-noreste
Temperatura 19°C
Humedad 34%
Presión 1014 hPa
Visibilidad: 16.1 km
Cielo despejado

METAR: KAWM 201953Z AUTO 34010G15KT 310V020 10SM CLR 19/03 A2993 RMK AO2 SLP134 T01940033

Hora: 15:32 (20:32 UTC)


TAF: falta

Observaciones y pronósticos meteorológicos de más de 4000 aeropuertos (mensajes METAR y TAF).

Los puntos amarillos y rojos representan las estaciones disponibles.

Ponga el ratón en el punto deseado para ver el nombre de la estación.

Haga clic para ver las observaciones y los pronósticos meteorológicos.

Para cambiar el mapa : haga clic en los botones verdes con una cruz de color negro para hacer un zoom, en el botón verde con un guión para alejar o en las flechas verdes para mapas adyacentes.


METAR-TAF: